Bookmark and Share
Track history (hours):
 

Rhourd El Adra

Last reported at 2014-Apr-19 12:16 UTC. Time now 2014-Apr-20 23:49 UTC.
Position N 36°02' W 000°02'.

Length 156 m; draft 7 m.

Type: Ship (hazmat cat C). MMSI: 605026210.

NotesDate/timePositionNaut miles runAvg speedWind from/ knotsBaromVisibWave heightAir tempDewpointWater temp
2014-Apr-19 12:16N 36°02' W 000°02'1 2.0
2014-Apr-19 11:33N 36°01' W 000°04'58 2.1
2014-Apr-18 07:30N 36°58' E 000°10'1516.0
2014-Apr-18 06:33N 37°13' E 000°16'3716.0
2014-Apr-18 04:16N 37°48' E 000°29'1216.2
2014-Apr-18 03:33N 37°59' E 000°33'1616.4
2014-Apr-18 02:33N 38°15' E 000°39'1616.3
2014-Apr-18 01:33N 38°30' E 000°45'1716.4
2014-Apr-18 00:30N 38°47' E 000°51'3115.8
2014-Apr-17 22:32N 39°18' E 000°58'3516.5
2014-Apr-17 20:24N 39°53' E 001°02'1517.6
2014-Apr-17 19:33N 40°08' E 001°04'3216.1
2014-Apr-17 17:33N 40°40' E 001°08'1716.4
2014-Apr-17 16:32N 40°56' E 001°11'10 9.7
2014-Apr-17 15:31N 41°06' E 001°13'0 0.0
2014-Apr-16 14:05N 41°06' E 001°13'15 9.6
2014-Apr-16 12:31N 40°51' E 001°10'1515.7
2014-Apr-16 11:33N 40°36' E 001°08'1615.7
2014-Apr-16 10:33N 40°20' E 001°07'1615.8
2014-Apr-16 09:33N 40°05' E 001°03'1515.0
2014-Apr-16 08:33N 39°50' E 001°02'3215.3
2014-Apr-16 06:29N 39°18' E 000°59'1515.7
2014-Apr-16 05:33N 39°04' E 000°57'1715.8
2014-Apr-16 04:29N 38°48' E 000°52'1815.6
2014-Apr-16 03:20N 38°30' E 000°45'1215.3
2014-Apr-16 02:33N 38°19' E 000°41'1615.6
2014-Apr-16 01:33N 38°04' E 000°35'1615.7
2014-Apr-16 00:33N 37°49' E 000°29'3516.1
2014-Apr-15 22:24N 37°16' E 000°17'  
2014-Apr-12 18:22N 38°11' E 002°33'1416.6
2014-Apr-12 17:33N 38°20' E 002°45'1616.4
2014-Apr-12 16:33N 38°32' E 002°59'1616.1
2014-Apr-12 15:33N 38°44' E 003°14'1716.8
2014-Apr-12 14:33N 38°56' E 003°29'1717.1
2014-Apr-12 13:33N 39°07' E 003°45'1817.8
2014-Apr-12 12:32N 39°20' E 004°01'1716.9
2014-Apr-12 11:32N 39°32' E 004°17'1716.5
2014-Apr-12 10:32N 39°44' E 004°32'3415.8
2014-Apr-12 08:23N 40°08' E 005°03'1517.4
2014-Apr-12 07:32N 40°18' E 005°17'1615.9
2014-Apr-12 06:33N 40°30' E 005°31'23915.9
2014-Apr-11 15:33N 43°15' E 009°22'1616.5
2014-Apr-11 14:33N 43°15' E 009°44'1515.2
2014-Apr-11 13:33N 43°22' E 010°03'1313.3
2014-Apr-11 12:33N 43°32' E 010°15'4 3.8
2014-Apr-11 11:29N 43°35' E 010°19'0 0.0
2014-Apr-11 10:29N 43°35' E 010°19'0 0.0
2014-Apr-11 09:32N 43°35' E 010°19'0 0.0
2014-Apr-11 08:32N 43°35' E 010°19'0 0.0
2014-Apr-11 07:32N 43°35' E 010°19'0 0.0
2014-Apr-11 06:32N 43°35' E 010°19'0 0.0
2014-Apr-11 05:32N 43°35' E 010°19'0 0.0
2014-Apr-11 04:32N 43°35' E 010°19'0 0.0
2014-Apr-11 03:32N 43°35' E 010°19'0 0.0
2014-Apr-11 02:32N 43°35' E 010°19'0 0.0
2014-Apr-11 01:32N 43°35' E 010°19'0 0.0
2014-Apr-11 00:29N 43°35' E 010°19'0 0.0
2014-Apr-10 23:32N 43°35' E 010°19'0 0.0
2014-Apr-10 22:32N 43°35' E 010°19'0 0.0
2014-Apr-10 21:29N 43°35' E 010°19'0 0.0
2014-Apr-10 20:32N 43°35' E 010°19'0 0.0
2014-Apr-10 19:32N 43°35' E 010°19'0 0.0
2014-Apr-10 18:29N 43°35' E 010°19'0 0.0
2014-Apr-10 17:29N 43°35' E 010°19'0 0.0
2014-Apr-10 16:32N 43°35' E 010°19'0 0.0
2014-Apr-10 15:32N 43°35' E 010°19'0 0.0
2014-Apr-10 14:32N 43°35' E 010°19'0 0.0
2014-Apr-10 13:32N 43°35' E 010°19'0 0.0
2014-Apr-10 12:32N 43°35' E 010°19'0 0.0
2014-Apr-10 11:32N 43°35' E 010°19'0 0.0
2014-Apr-10 10:32N 43°35' E 010°19'0 0.0
2014-Apr-10 09:32N 43°35' E 010°19'0 0.0
2014-Apr-10 08:32N 43°35' E 010°19'0 0.0
2014-Apr-10 07:32N 43°35' E 010°19'3 2.9
2014-Apr-10 06:34N 43°32' E 010°17'3 2.5
2014-Apr-10 05:34N 43°30' E 010°17'1 1.0
2014-Apr-10 04:30N 43°29' E 010°18'0 0.0
2014-Apr-10 03:30N 43°29' E 010°18'0 0.1
2014-Apr-10 02:33N 43°30' E 010°18'0 0.0
2014-Apr-10 01:33N 43°30' E 010°18'0 0.0
2014-Apr-10 00:33N 43°30' E 010°18'0 0.0
2014-Apr-09 23:33N 43°30' E 010°18'0 0.0
2014-Apr-09 22:33N 43°30' E 010°18'0 0.1
2014-Apr-09 21:33N 43°29' E 010°18'0 0.0
2014-Apr-09 20:30N 43°29' E 010°18'0 0.1
2014-Apr-09 19:33N 43°29' E 010°18'0 0.0
2014-Apr-09 18:30N 43°29' E 010°18'0 0.0
2014-Apr-09 17:33N 43°29' E 010°18'0 0.0
2014-Apr-09 16:30N 43°29' E 010°18'0 0.0
2014-Apr-09 15:33N 43°30' E 010°18'0 0.0
2014-Apr-09 14:33N 43°30' E 010°18'0 0.0
2014-Apr-09 13:33N 43°30' E 010°18'2 2.0
2014-Apr-09 12:33N 43°30' E 010°15'  

Dump ship's entire track history

sailing weather and tide predictions

Rhourd El Adra — 7TBS — position and weather